createdAt,value
2023-02-06T00:01:55.658Z,-3.82
2023-02-06T00:07:18.035Z,-3.75
2023-02-06T00:12:40.454Z,-3.94
2023-02-06T00:18:05.618Z,-3.93
2023-02-06T00:23:27.779Z,-3.83
2023-02-06T00:28:49.905Z,-3.79
2023-02-06T00:34:12.784Z,-3.81
2023-02-06T00:39:34.672Z,-3.86
2023-02-06T00:44:56.631Z,-3.94
2023-02-06T00:50:18.981Z,-4.00
2023-02-06T00:55:41.047Z,-4.10
2023-02-06T01:01:03.302Z,-4.01
2023-02-06T01:06:25.369Z,-3.94
2023-02-06T01:11:47.156Z,-3.90
2023-02-06T01:17:10.763Z,-3.84
2023-02-06T01:22:37.736Z,-3.78
2023-02-06T01:27:59.973Z,-3.76
2023-02-06T01:33:22.116Z,-3.79
2023-02-06T01:38:45.116Z,-3.83
2023-02-06T01:44:13.218Z,-3.74
2023-02-06T01:49:45.057Z,-3.74
2023-02-06T01:55:07.366Z,-3.75
2023-02-06T02:00:29.764Z,-3.70
2023-02-06T02:05:53.139Z,-3.42
2023-02-06T02:11:32.196Z,-3.49
2023-02-06T02:17:11.035Z,-3.57
2023-02-06T02:23:05.441Z,-3.55
2023-02-06T02:28:30.235Z,-3.42
2023-02-06T02:34:34.457Z,-3.52
2023-02-06T02:40:19.125Z,-3.62
2023-02-06T02:45:56.131Z,-3.75
2023-02-06T02:51:19.082Z,-3.77
2023-02-06T02:56:45.306Z,-3.69
2023-02-06T03:02:13.577Z,-3.89
2023-02-06T03:07:48.743Z,-3.75
2023-02-06T03:13:26.617Z,-3.81
2023-02-06T03:25:03.833Z,-3.73
2023-02-06T03:30:34.282Z,-3.79
2023-02-06T03:35:59.469Z,-4.10
2023-02-06T03:41:28.102Z,-3.96
2023-02-06T03:46:52.666Z,-3.78
2023-02-06T03:52:21.479Z,-3.80
2023-02-06T03:57:48.863Z,-3.87
2023-02-06T04:03:15.168Z,-3.75
2023-02-06T04:08:36.929Z,-4.08
2023-02-06T04:13:58.823Z,-3.80
2023-02-06T04:19:20.942Z,-3.80
2023-02-06T04:24:43.723Z,-3.98
2023-02-06T04:30:06.922Z,-4.00
2023-02-06T04:35:29.455Z,-3.94
2023-02-06T04:40:52.364Z,-3.92
2023-02-06T04:46:14.337Z,-3.98
2023-02-06T04:51:38.042Z,-3.84
2023-02-06T04:57:00.379Z,-4.07
2023-02-06T05:02:24.950Z,-4.14
2023-02-06T05:07:46.988Z,-4.04
2023-02-06T05:13:09.378Z,-4.22
2023-02-06T05:18:31.518Z,-4.20
2023-02-06T05:23:53.626Z,-4.22
2023-02-06T05:29:15.282Z,-4.26
2023-02-06T05:34:37.590Z,-4.35
2023-02-06T05:40:00.113Z,-4.07
2023-02-06T05:45:22.339Z,-4.12
2023-02-06T05:50:45.049Z,-4.25
2023-02-06T05:56:10.500Z,-4.12
2023-02-06T06:01:32.660Z,-4.00
2023-02-06T06:06:54.361Z,-4.02
2023-02-06T06:12:16.790Z,-4.04
2023-02-06T06:17:38.926Z,-4.17
2023-02-06T06:23:03.818Z,-3.95
2023-02-06T06:28:25.864Z,-3.87
2023-02-06T06:33:48.544Z,-3.75
2023-02-06T06:39:11.588Z,-3.71
2023-02-06T06:44:34.227Z,-3.57
2023-02-06T06:49:58.553Z,-3.61
2023-02-06T06:55:20.717Z,-3.44
2023-02-06T07:00:43.560Z,-3.12
2023-02-06T07:06:06.614Z,-3.15
2023-02-06T07:11:32.165Z,-3.19
2023-02-06T07:16:54.464Z,-3.22
2023-02-06T07:22:16.672Z,-3.35
2023-02-06T07:27:38.730Z,-3.24
2023-02-06T07:33:01.352Z,-3.14
2023-02-06T07:38:23.453Z,-3.06
2023-02-06T07:43:45.324Z,-3.00
2023-02-06T07:49:07.202Z,-2.83
2023-02-06T07:54:29.293Z,-2.97
2023-02-06T07:59:51.628Z,-2.98
2023-02-06T08:05:13.900Z,-2.88
2023-02-06T08:10:40.364Z,-2.66
2023-02-06T08:16:12.405Z,-3.04
2023-02-06T08:21:34.963Z,-2.86
2023-02-06T08:26:57.532Z,-3.10
2023-02-06T08:32:20.111Z,-3.01
2023-02-06T08:37:42.518Z,-2.84
2023-02-06T08:43:05.122Z,-2.78
2023-02-06T08:48:28.020Z,-2.69
2023-02-06T08:53:50.303Z,-2.63
2023-02-06T08:59:14.808Z,-2.56
2023-02-06T09:04:38.302Z,-2.38
2023-02-06T09:10:01.536Z,-2.47
2023-02-06T09:15:24.407Z,-2.36
2023-02-06T09:20:50.243Z,-2.29
2023-02-06T09:26:14.561Z,-2.13
2023-02-06T09:31:39.407Z,-1.93
2023-02-06T09:37:06.086Z,-2.59
2023-02-06T09:42:42.504Z,-2.15
2023-02-06T09:48:21.144Z,-2.03
2023-02-06T09:54:09.644Z,-2.08
2023-02-06T09:59:36.059Z,-2.44
2023-02-06T10:05:30.845Z,-2.30
2023-02-06T10:11:09.503Z,-2.21
2023-02-06T10:17:10.508Z,-2.17
2023-02-06T10:22:46.326Z,-2.41
2023-02-06T10:28:31.186Z,-2.22
2023-02-06T10:34:21.394Z,-2.25
2023-02-06T10:39:59.484Z,-2.31
2023-02-06T10:45:48.948Z,-2.42
2023-02-06T10:51:25.501Z,-2.71
2023-02-06T10:57:19.983Z,-2.94
2023-02-06T11:03:06.584Z,-2.95
2023-02-06T11:08:45.761Z,-3.08
2023-02-06T11:14:31.295Z,-3.02
2023-02-06T11:20:24.688Z,-3.28
2023-02-06T11:25:55.912Z,-3.40
2023-02-06T11:31:23.274Z,-3.31
2023-02-06T11:36:45.870Z,-3.26
2023-02-06T11:42:19.271Z,-3.31
2023-02-06T11:47:41.573Z,-3.35
2023-02-06T11:53:20.594Z,-3.66
2023-02-06T11:58:43.940Z,-3.58
2023-02-06T12:04:06.742Z,-3.84
2023-02-06T12:09:29.665Z,-4.00
2023-02-06T12:15:10.243Z,-3.69
2023-02-06T12:20:51.804Z,-3.75
2023-02-06T12:26:17.373Z,-3.89
2023-02-06T12:32:05.434Z,-4.00
2023-02-06T12:37:42.204Z,-4.07
2023-02-06T12:43:16.585Z,-4.19
2023-02-06T12:48:50.082Z,-4.30
2023-02-06T12:54:40.753Z,-4.38
2023-02-06T13:00:29.484Z,-4.52
2023-02-06T13:06:28.216Z,-4.51
2023-02-06T13:11:50.769Z,-4.49
2023-02-06T13:17:24.551Z,-4.33
2023-02-06T13:23:16.510Z,-4.31
2023-02-06T13:28:38.744Z,-4.35
2023-02-06T13:34:17.068Z,-4.51
2023-02-06T13:40:10.347Z,-4.47
2023-02-06T13:45:54.877Z,-4.59
2023-02-06T13:51:25.856Z,-4.39
2023-02-06T13:57:16.064Z,-4.44
2023-02-06T14:02:51.067Z,-4.62
2023-02-06T14:15:47.140Z,-4.47
2023-02-06T14:21:35.217Z,-4.37
2023-02-06T14:39:03.390Z,-4.39
2023-02-06T14:44:32.915Z,-4.62
2023-02-06T14:49:58.762Z,-4.58
2023-02-06T14:55:40.705Z,-4.75
2023-02-06T15:01:33.087Z,-4.75
2023-02-06T15:07:02.548Z,-4.63
2023-02-06T15:12:27.793Z,-4.72
2023-02-06T15:18:05.454Z,-4.73
2023-02-06T15:23:52.385Z,-4.71
2023-02-06T15:29:28.318Z,-4.53
2023-02-06T15:34:50.866Z,-4.59
2023-02-06T15:40:31.614Z,-4.65
2023-02-06T15:45:59.510Z,-4.73
2023-02-06T15:51:30.351Z,-4.72
2023-02-06T15:56:59.317Z,-4.61
2023-02-06T16:02:31.727Z,-4.59
2023-02-06T16:07:55.506Z,-4.86
2023-02-06T16:13:21.775Z,-4.66
2023-02-06T16:18:44.109Z,-4.82
2023-02-06T16:24:16.951Z,-4.87
2023-02-06T16:29:39.373Z,-4.81
2023-02-06T16:35:02.902Z,-5.04
2023-02-06T16:40:26.627Z,-4.90
2023-02-06T16:45:49.923Z,-4.95
2023-02-06T16:51:22.767Z,-4.79
2023-02-06T16:56:45.358Z,-4.97
2023-02-06T17:02:14.933Z,-4.82
2023-02-06T17:07:36.667Z,-4.81
2023-02-06T17:12:58.696Z,-4.87
2023-02-06T17:18:22.474Z,-4.80
2023-02-06T17:23:46.078Z,-4.81
2023-02-06T17:29:08.186Z,-4.83
2023-02-06T17:34:31.136Z,-4.80
2023-02-06T17:39:54.101Z,-4.80
2023-02-06T17:45:16.748Z,-4.88
2023-02-06T17:50:41.817Z,-4.98
2023-02-06T17:56:13.292Z,-5.08
2023-02-06T18:01:36.049Z,-4.97
2023-02-06T18:06:58.795Z,-4.92
2023-02-06T18:12:21.340Z,-4.95
2023-02-06T18:17:44.559Z,-4.94
2023-02-06T18:23:06.997Z,-5.14
2023-02-06T18:28:29.971Z,-4.95
2023-02-06T18:33:52.598Z,-5.05
2023-02-06T18:39:14.587Z,-5.04
2023-02-06T18:44:42.346Z,-5.04
2023-02-06T18:50:04.671Z,-5.07
2023-02-06T18:55:26.988Z,-5.16
2023-02-06T19:00:49.600Z,-5.29
2023-02-06T19:06:19.364Z,-5.07
2023-02-06T19:11:43.064Z,-5.06
2023-02-06T19:17:05.214Z,-5.07
2023-02-06T19:22:27.440Z,-4.99
2023-02-06T19:27:49.783Z,-5.05
2023-02-06T19:33:11.884Z,-5.05
2023-02-06T19:38:34.679Z,-4.98
2023-02-06T19:43:58.204Z,-5.27
2023-02-06T19:49:20.727Z,-5.23
2023-02-06T19:54:43.294Z,-5.12
2023-02-06T20:00:06.405Z,-5.09
2023-02-06T20:05:29.292Z,-5.28
2023-02-06T20:10:51.627Z,-5.27
2023-02-06T20:16:25.685Z,-5.27
2023-02-06T20:21:52.489Z,-5.12
2023-02-06T20:27:16.655Z,-5.33
2023-02-06T20:32:39.052Z,-5.34
2023-02-06T20:38:01.451Z,-5.25
2023-02-06T20:43:23.712Z,-5.34
2023-02-06T20:48:47.388Z,-5.21
2023-02-06T20:54:11.848Z,-5.18
2023-02-06T20:59:34.097Z,-5.42
2023-02-06T21:04:55.998Z,-5.36
2023-02-06T21:10:17.955Z,-5.34
2023-02-06T21:15:40.259Z,-5.40
2023-02-06T21:21:11.951Z,-5.19
2023-02-06T21:26:34.529Z,-5.19
2023-02-06T21:32:12.261Z,-5.18
2023-02-06T21:37:35.492Z,-5.30
2023-02-06T21:42:57.704Z,-5.24
2023-02-06T21:48:19.860Z,-5.12
2023-02-06T21:53:43.363Z,-5.04
2023-02-06T21:59:07.157Z,-4.95
2023-02-06T22:04:31.791Z,-4.86
2023-02-06T22:09:53.932Z,-5.11
2023-02-06T22:15:16.494Z,-5.02
2023-02-06T22:20:38.759Z,-5.14
2023-02-06T22:26:00.961Z,-5.14
2023-02-06T22:31:27.820Z,-5.10
2023-02-06T22:36:51.617Z,-4.90
2023-02-06T22:42:13.238Z,-5.03
2023-02-06T22:47:35.489Z,-5.08
2023-02-06T22:53:16.508Z,-5.39
2023-02-06T22:58:38.656Z,-5.32
2023-02-06T23:04:02.201Z,-5.34
2023-02-06T23:09:27.084Z,-5.28
2023-02-06T23:14:49.040Z,-5.23
2023-02-06T23:20:11.691Z,-5.24
2023-02-06T23:25:34.237Z,-5.10
2023-02-06T23:30:56.727Z,-5.13
2023-02-06T23:36:20.252Z,-5.23
2023-02-06T23:41:42.412Z,-5.30
2023-02-06T23:47:04.965Z,-5.20
2023-02-06T23:52:27.197Z,-5.42
2023-02-06T23:57:49.465Z,-5.27
